Time;durP1;ratioP1;P1;durP2;ratioP2;P2;SDS_P1;SDS_P2;PMS_P1;PMS_P2;Temp;Humidity;BMP_temperature;BMP_pressure;BME280_temperature;BME280_humidity;BME280_pressure;Samples;Min_cycle;Max_cycle;Signal;HPM_P1;HPM_P2
2022/05/29 00:00:47;;;;;;;8.33;2.90;;;7.20;52.20;;;;;;5053359;28;46377;-61
2022/05/29 00:03:13;;;;;;;7.47;2.97;;;7.20;52.20;;;;;;5058493;28;46420;-64
2022/05/29 00:05:39;;;;;;;17.10;2.70;;;7.20;52.40;;;;;;5056728;28;46364;-61
2022/05/29 00:08:06;;;;;;;9.57;2.40;;;7.10;52.70;;;;;;5055158;28;46498;-63
2022/05/29 00:10:37;;;;;;;4.50;2.47;;;7.10;52.80;;;;;;5052872;28;46330;-59
2022/05/29 00:13:04;;;;;;;4.17;2.13;;;7.10;53.00;;;;;;5050482;28;46440;-62
2022/05/29 00:15:30;;;;;;;8.70;2.23;;;7.00;52.90;;;;;;5052697;28;47270;-61
2022/05/29 00:17:55;;;;;;;4.80;2.20;;;7.00;53.00;;;;;;5058324;28;46413;-61
2022/05/29 00:20:21;;;;;;;3.67;2.17;;;6.90;53.20;;;;;;5053692;28;46344;-63
2022/05/29 00:22:47;;;;;;;4.90;2.30;;;6.80;53.30;;;;;;5055546;28;46363;-62
2022/05/29 00:25:12;;;;;;;6.07;2.53;;;6.70;53.40;;;;;;5053109;28;47145;-62
2022/05/29 00:27:39;;;;;;;19.47;2.43;;;6.70;53.40;;;;;;5054839;28;46412;-61
2022/05/29 00:30:06;;;;;;;6.70;2.60;;;6.70;53.60;;;;;;5054958;28;46385;-61
2022/05/29 00:32:33;;;;;;;4.40;2.87;;;6.70;53.60;;;;;;5054597;28;46509;-62
2022/05/29 00:34:58;;;;;;;4.37;2.70;;;6.60;53.60;;;;;;5054330;28;46666;-59
2022/05/29 00:37:24;;;;;;;5.17;2.07;;;6.60;55.00;;;;;;5054604;28;46426;-62
2022/05/29 00:39:52;;;;;;;4.73;2.60;;;6.60;53.70;;;;;;5051191;28;46494;-61
2022/05/29 00:42:21;;;;;;;4.30;2.27;;;6.60;53.80;;;;;;5056392;28;46724;-62
2022/05/29 00:44:46;;;;;;;7.23;2.23;;;6.50;53.70;;;;;;5051632;28;46331;-62
2022/05/29 00:47:18;;;;;;;6.30;2.70;;;6.50;53.70;;;;;;5055971;28;46691;-61
2022/05/29 00:49:45;;;;;;;5.37;2.47;;;6.50;53.80;;;;;;5050644;28;46294;-61
2022/05/29 00:52:31;;;;;;;4.07;2.50;;;6.50;53.90;;;;;;5050807;28;46311;-64
2022/05/29 00:55:01;;;;;;;5.73;2.37;;;6.40;54.10;;;;;;5051724;28;46514;-63
2022/05/29 00:57:28;;;;;;;4.67;2.77;;;6.40;53.90;;;;;;5051710;28;46568;-61
2022/05/29 00:59:56;;;;;;;4.40;2.87;;;6.40;54.00;;;;;;5051528;28;46478;-61
2022/05/29 01:02:21;;;;;;;6.50;2.47;;;6.40;54.00;;;;;;5052561;28;46403;-62
2022/05/29 01:04:47;;;;;;;6.93;2.97;;;6.40;54.00;;;;;;5051540;28;46381;-62
2022/05/29 01:07:16;;;;;;;4.70;2.60;;;6.40;54.10;;;;;;5057891;28;46357;-62
2022/05/29 01:09:45;;;;;;;7.37;2.80;;;6.40;54.20;;;;;;5052466;28;46385;-61
2022/05/29 01:12:11;;;;;;;5.30;2.70;;;6.40;54.40;;;;;;5055551;28;46338;-60
2022/05/29 01:14:59;;;;;;;7.87;2.90;;;6.40;54.20;;;;;;5055675;28;46924;-62
2022/05/29 01:17:51;;;;;;;5.27;2.90;;;6.40;54.30;;;;;;5050061;28;47406;-61
2022/05/29 01:20:31;;;;;;;6.37;2.70;;;6.40;54.40;;;;;;5053190;28;46398;-62
2022/05/29 01:23:32;;;;;;;4.10;2.30;;;6.30;54.40;;;;;;5053212;28;45815;-63
2022/05/29 01:26:21;;;;;;;5.77;3.13;;;6.30;54.70;;;;;;5051590;28;47103;-62
2022/05/29 01:29:01;;;;;;;4.47;2.30;;;6.20;54.60;;;;;;5052473;28;46424;-63
2022/05/29 01:31:50;;;;;;;3.87;2.30;;;6.10;54.90;;;;;;5047622;28;46747;-62
2022/05/29 01:34:32;;;;;;;6.43;2.63;;;6.10;54.90;;;;;;5053041;28;46449;-62
2022/05/29 01:37:19;;;;;;;5.53;2.90;;;6.10;54.80;;;;;;5049793;28;46353;-62
2022/05/29 01:39:58;;;;;;;6.30;2.70;;;6.10;54.50;;;;;;5052875;28;46450;-63
2022/05/29 01:42:35;;;;;;;3.53;2.40;;;6.10;54.50;;;;;;5048641;28;46688;-61
2022/05/29 01:45:14;;;;;;;10.73;2.73;;;6.10;54.60;;;;;;5055064;28;46376;-63
2022/05/29 01:47:57;;;;;;;4.50;2.77;;;6.10;54.60;;;;;;5049200;28;47985;-61
2022/05/29 01:50:50;;;;;;;5.60;3.50;;;6.00;54.60;;;;;;5052487;28;46411;-62
2022/05/29 01:53:31;;;;;;;6.10;2.83;;;6.00;54.70;;;;;;5050995;28;46423;-59
2022/05/29 01:56:01;;;;;;;6.30;2.33;;;5.90;54.80;;;;;;5049328;28;46117;-62
2022/05/29 01:58:39;;;;;;;5.40;2.30;;;5.90;54.80;;;;;;5051008;28;46721;-61
2022/05/29 02:01:08;;;;;;;8.30;2.67;;;5.90;55.00;;;;;;5052888;28;46412;-63
2022/05/29 02:03:39;;;;;;;5.60;2.60;;;5.80;55.00;;;;;;5050326;28;46383;-62
2022/05/29 02:06:14;;;;;;;4.83;2.53;;;5.70;55.30;;;;;;5051335;28;46334;-61
2022/05/29 02:09:00;;;;;;;4.67;2.60;;;5.70;55.40;;;;;;5048158;28;46961;-63
2022/05/29 02:11:28;;;;;;;4.90;2.93;;;5.70;55.50;;;;;;5049647;28;46409;-61
2022/05/29 02:14:03;;;;;;;7.27;2.80;;;5.80;55.40;;;;;;5048495;28;45925;-61
2022/05/29 02:16:44;;;;;;;4.57;2.37;;;5.70;55.30;;;;;;5049942;28;46568;-62
2022/05/29 02:19:28;;;;;;;4.10;2.50;;;5.70;55.40;;;;;;5049286;28;47343;-60
2022/05/29 02:22:08;;;;;;;4.90;2.70;;;5.70;55.40;;;;;;5050703;28;46747;-61
2022/05/29 02:24:39;;;;;;;4.40;2.63;;;5.70;55.20;;;;;;5050282;28;46351;-62
2022/05/29 02:27:21;;;;;;;4.60;2.40;;;5.70;55.20;;;;;;5048838;28;46470;-64
2022/05/29 02:29:47;;;;;;;6.53;2.70;;;5.70;55.20;;;;;;5050770;28;47205;-61
2022/05/29 02:32:24;;;;;;;6.23;2.83;;;5.70;55.20;;;;;;5051788;28;46421;-60
2022/05/29 02:34:52;;;;;;;5.43;2.90;;;5.70;55.30;;;;;;5052555;28;46681;-61
2022/05/29 02:37:21;;;;;;;10.87;3.10;;;5.70;55.20;;;;;;5052537;28;46628;-63
2022/05/29 02:39:54;;;;;;;8.37;2.97;;;5.70;55.10;;;;;;5050100;28;46420;-62
2022/05/29 02:42:24;;;;;;;4.30;2.50;;;5.70;55.20;;;;;;5051606;28;46338;-62
2022/05/29 02:45:03;;;;;;;5.60;2.40;;;5.70;55.40;;;;;;5050735;28;46467;-63
2022/05/29 02:47:35;;;;;;;7.27;2.63;;;5.70;55.50;;;;;;5051597;28;46433;-64
2022/05/29 02:50:29;;;;;;;5.60;2.47;;;5.70;55.50;;;;;;5051141;28;46459;-62
2022/05/29 02:52:59;;;;;;;6.10;2.87;;;5.70;55.50;;;;;;5052196;28;46375;-62
2022/05/29 02:55:25;;;;;;;5.47;2.60;;;5.70;55.40;;;;;;5050082;28;46511;-62
2022/05/29 02:57:56;;;;;;;3.93;2.57;;;5.70;55.50;;;;;;5050666;28;46334;-62
2022/05/29 03:00:22;;;;;;;3.63;2.43;;;5.60;55.50;;;;;;5051138;28;46354;-62
2022/05/29 03:02:53;;;;;;;6.13;2.90;;;5.60;55.60;;;;;;5050893;28;46411;-63
2022/05/29 03:05:37;;;;;;;3.67;2.47;;;5.60;55.60;;;;;;5049092;28;46198;-63
2022/05/29 03:08:18;;;;;;;5.03;2.80;;;5.60;55.90;;;;;;5051916;28;46543;-63
2022/05/29 03:11:08;;;;;;;9.00;3.03;;;5.60;55.90;;;;;;5047645;28;46841;-62
2022/05/29 03:14:26;;;;;;;5.40;3.03;;;5.60;55.80;;;;;;5043651;28;46342;-62
2022/05/29 03:17:17;;;;;;;5.90;2.40;;;5.60;56.00;;;;;;5023888;28;46631;-61
2022/05/29 03:20:08;;;;;;;6.00;2.90;;;5.50;55.80;;;;;;5052597;28;45907;-62
2022/05/29 03:22:43;;;;;;;4.13;2.47;;;5.50;56.00;;;;;;5047867;28;47137;-61
2022/05/29 03:25:37;;;;;;;6.27;3.00;;;5.50;55.90;;;;;;5051419;28;46497;-60
2022/05/29 03:28:07;;;;;;;6.87;2.63;;;5.40;56.00;;;;;;5050876;28;46402;-61
2022/05/29 03:30:36;;;;;;;8.77;3.43;;;5.40;55.70;;;;;;5046306;28;46546;-62
2022/05/29 03:33:06;;;;;;;9.53;2.33;;;5.40;55.80;;;;;;5050489;28;47239;-62
2022/05/29 03:35:45;;;;;;;5.00;2.57;;;5.50;55.80;;;;;;5052583;28;46342;-61
2022/05/29 03:38:11;;;;;;;6.20;2.77;;;5.50;55.80;;;;;;5052318;28;46468;-63
2022/05/29 03:40:37;;;;;;;6.60;2.80;;;5.60;55.60;;;;;;5051683;28;46655;-63
2022/05/29 03:43:02;;;;;;;5.00;2.83;;;5.70;55.70;;;;;;5052961;28;46220;-61
2022/05/29 03:45:28;;;;;;;9.33;2.70;;;5.80;55.60;;;;;;5048689;28;46043;-62
2022/05/29 03:47:55;;;;;;;8.80;2.53;;;5.80;55.70;;;;;;5050750;28;46354;-61
2022/05/29 03:50:23;;;;;;;6.07;2.33;;;5.90;55.80;;;;;;5052254;28;45985;-62
2022/05/29 03:52:49;;;;;;;11.70;2.87;;;5.90;55.80;;;;;;5049380;28;46454;-61
2022/05/29 03:55:17;;;;;;;6.13;2.70;;;6.00;56.00;;;;;;5052879;28;46448;-62
2022/05/29 03:57:42;;;;;;;9.30;2.53;;;6.00;55.80;;;;;;5051872;28;46375;-60
2022/05/29 04:00:11;;;;;;;7.90;2.90;;;6.10;55.90;;;;;;5048861;28;46707;-63
2022/05/29 04:02:36;;;;;;;4.00;2.40;;;6.10;55.90;;;;;;5048447;28;47043;-61
2022/05/29 04:05:02;;;;;;;3.37;2.23;;;6.10;55.90;;;;;;5048847;28;46446;-61
2022/05/29 04:12:57;;;;;;;4.97;2.50;;;6.20;56.20;;;;;;5049603;28;46795;-61
2022/05/29 04:15:23;;;;;;;5.33;2.67;;;6.20;56.30;;;;;;5047754;28;46421;-62
2022/05/29 04:17:50;;;;;;;4.57;2.87;;;6.30;55.90;;;;;;5045772;28;46422;-62
2022/05/29 04:20:15;;;;;;;4.87;2.73;;;6.50;55.70;;;;;;5052642;28;46388;-61
2022/05/29 04:22:41;;;;;;;3.73;2.80;;;6.60;55.60;;;;;;5049442;28;48138;-61
2022/05/29 04:25:07;;;;;;;4.33;2.33;;;6.60;55.50;;;;;;5050915;28;46397;-62
2022/05/29 04:27:33;;;;;;;3.47;2.70;;;6.70;55.60;;;;;;5047224;28;46254;-62
2022/05/29 04:29:58;;;;;;;8.27;2.60;;;6.80;55.60;;;;;;5050061;28;46465;-62
2022/05/29 04:35:09;;;;;;;4.90;2.60;;;7.00;55.30;;;;;;5047855;28;46473;-63
2022/05/29 04:37:34;;;;;;;3.50;2.20;;;7.10;55.00;;;;;;5048556;28;46766;-62
2022/05/29 04:40:00;;;;;;;6.77;2.73;;;7.30;54.90;;;;;;5047729;28;46354;-63
2022/05/29 04:42:26;;;;;;;9.20;2.90;;;7.50;54.20;;;;;;5046799;28;48403;-61
2022/05/29 04:44:52;;;;;;;8.50;2.30;;;8.40;52.60;;;;;;5047927;28;46392;-62
2022/05/29 04:47:18;;;;;;;4.53;1.93;;;10.40;50.80;;;;;;5078732;27;46568;-62
2022/05/29 04:49:44;;;;;;;3.93;2.00;;;12.00;47.80;;;;;;5045850;28;46425;-62
2022/05/29 04:52:10;;;;;;;4.63;2.50;;;13.30;45.10;;;;;;5045088;28;47395;-62
2022/05/29 04:54:40;;;;;;;4.37;2.23;;;14.30;43.90;;;;;;5045922;28;46625;-62
2022/05/29 04:57:08;;;;;;;3.57;2.07;;;15.50;42.40;;;;;;5044621;28;46318;-62
2022/05/29 04:59:34;;;;;;;3.97;1.90;;;16.80;39.60;;;;;;5045097;28;46443;-61
2022/05/29 05:02:01;;;;;;;4.13;2.17;;;17.70;37.40;;;;;;5045499;28;46496;-61
2022/05/29 05:04:27;;;;;;;3.63;2.00;;;18.70;35.00;;;;;;5050386;28;46460;-64
2022/05/29 05:06:58;;;;;;;4.77;2.27;;;19.40;33.50;;;;;;5049280;28;46465;-62
2022/05/29 05:09:27;;;;;;;4.33;2.13;;;20.00;31.50;;;;;;5052530;28;46440;-63
2022/05/29 05:11:54;;;;;;;3.73;2.37;;;20.60;30.60;;;;;;5051736;28;46168;-61
2022/05/29 05:14:21;;;;;;;5.97;2.63;;;21.00;30.50;;;;;;5054684;28;46312;-61
2022/05/29 05:16:47;;;;;;;4.63;2.40;;;21.40;28.50;;;;;;5053018;28;45894;-62
2022/05/29 05:19:14;;;;;;;6.27;2.37;;;21.50;27.50;;;;;;5056077;28;46463;-61
2022/05/29 05:21:40;;;;;;;4.57;2.20;;;21.80;26.90;;;;;;5054479;28;46714;-63
2022/05/29 05:24:06;;;;;;;5.77;2.53;;;22.10;25.90;;;;;;5053758;28;46691;-62
2022/05/29 05:26:31;;;;;;;5.03;2.33;;;22.20;25.70;;;;;;5051987;28;46441;-61
2022/05/29 05:28:57;;;;;;;6.50;2.87;;;22.30;25.80;;;;;;5053092;28;46591;-62
2022/05/29 05:31:24;;;;;;;4.37;2.27;;;22.10;25.60;;;;;;5053961;28;46369;-61
2022/05/29 05:33:51;;;;;;;6.60;2.53;;;22.30;25.10;;;;;;5051339;28;46385;-62
2022/05/29 05:36:16;;;;;;;4.50;2.60;;;22.60;24.30;;;;;;5052568;28;46479;-62
2022/05/29 05:38:42;;;;;;;5.73;2.53;;;22.80;23.50;;;;;;5049981;28;46374;-62
2022/05/29 05:41:13;;;;;;;4.60;2.93;;;22.50;23.10;;;;;;5057966;28;48315;-62
2022/05/29 05:43:39;;;;;;;7.50;5.23;;;22.40;22.30;;;;;;5052778;28;46304;-62
2022/05/29 05:46:13;;;;;;;5.93;2.90;;;22.60;21.70;;;;;;5047721;28;46398;-62
2022/05/29 05:48:39;;;;;;;5.83;2.90;;;22.50;21.00;;;;;;5053946;28;45791;-62
2022/05/29 05:51:09;;;;;;;5.07;2.53;;;22.30;21.10;;;;;;5052589;28;46304;-61
2022/05/29 05:53:36;;;;;;;5.20;2.87;;;21.10;21.60;;;;;;5051746;28;45956;-60
2022/05/29 05:56:07;;;;;;;8.97;2.13;;;19.40;24.30;;;;;;5056088;28;46402;-61
2022/05/29 05:58:32;;;;;;;3.87;2.30;;;18.40;25.10;;;;;;5053796;28;46484;-60
2022/05/29 06:01:04;;;;;;;9.23;2.70;;;17.40;28.10;;;;;;5052873;28;47132;-62
2022/05/29 06:03:29;;;;;;;3.90;2.30;;;16.80;29.10;;;;;;5052129;28;46510;-61
2022/05/29 06:05:55;;;;;;;8.63;2.37;;;16.20;29.40;;;;;;5053546;28;46370;-61
2022/05/29 06:08:20;;;;;;;5.37;1.93;;;16.00;29.60;;;;;;5054788;28;46607;-63
2022/05/29 06:10:46;;;;;;;6.83;2.27;;;16.00;30.40;;;;;;5058978;28;46379;-60
2022/05/29 06:13:12;;;;;;;5.07;2.10;;;16.00;30.30;;;;;;5049230;28;46322;-61
2022/05/29 06:15:38;;;;;;;5.13;2.27;;;16.00;29.80;;;;;;5055280;28;46499;-61
2022/05/29 06:18:04;;;;;;;6.97;3.07;;;15.40;30.00;;;;;;5053565;28;46377;-61
2022/05/29 06:20:30;;;;;;;7.53;2.20;;;15.10;29.90;;;;;;5053708;28;47947;-62
2022/05/29 06:22:55;;;;;;;6.57;2.70;;;15.30;29.80;;;;;;5047712;28;45915;-60
2022/05/29 06:25:21;;;;;;;4.80;2.30;;;15.30;29.90;;;;;;5052319;28;46387;-61
2022/05/29 06:27:47;;;;;;;6.80;2.60;;;15.20;29.80;;;;;;5049175;28;46592;-61
2022/05/29 06:30:15;;;;;;;9.87;2.83;;;15.20;29.10;;;;;;5051953;28;46440;-60
2022/05/29 06:32:41;;;;;;;6.33;2.27;;;15.50;28.40;;;;;;5048360;28;46397;-60
2022/05/29 06:35:09;;;;;;;4.17;2.10;;;15.70;27.70;;;;;;5052138;28;46353;-63
2022/05/29 06:37:39;;;;;;;6.03;2.63;;;16.00;27.00;;;;;;5050955;28;46451;-60
2022/05/29 06:40:06;;;;;;;5.73;2.60;;;16.10;26.90;;;;;;5048941;28;46270;-63
2022/05/29 06:42:32;;;;;;;8.70;2.90;;;16.20;26.30;;;;;;5050398;28;46430;-62
2022/05/29 06:44:59;;;;;;;6.53;2.70;;;16.40;26.30;;;;;;5049408;28;46378;-61
2022/05/29 06:47:25;;;;;;;6.83;2.13;;;16.50;25.80;;;;;;5051976;28;46336;-60
2022/05/29 06:49:50;;;;;;;5.63;2.50;;;16.70;25.40;;;;;;5049315;28;47295;-62
2022/05/29 06:52:17;;;;;;;5.97;2.23;;;16.90;25.20;;;;;;5052856;28;46572;-62
2022/05/29 06:54:43;;;;;;;5.90;2.40;;;16.90;24.90;;;;;;5053225;28;46286;-61
2022/05/29 06:57:10;;;;;;;9.63;2.33;;;16.90;24.90;;;;;;5049124;28;46396;-62
2022/05/29 07:07:58;;;;;;;4.67;2.10;;;15.80;25.70;;;;;;5046880;28;45783;-62
2022/05/29 07:10:28;;;;;;;4.40;2.43;;;15.60;26.00;;;;;;5050557;28;46668;-61
2022/05/29 07:12:53;;;;;;;6.90;2.60;;;15.40;26.40;;;;;;5046459;28;46520;-61
2022/05/29 07:15:19;;;;;;;5.30;3.20;;;14.80;28.00;;;;;;5052975;28;46374;-62
2022/05/29 07:17:45;;;;;;;7.30;2.50;;;14.50;27.60;;;;;;5048399;28;46426;-61
2022/05/29 07:20:12;;;;;;;5.63;2.23;;;14.40;27.80;;;;;;5051504;28;46427;-61
2022/05/29 07:22:40;;;;;;;4.10;2.30;;;14.50;27.90;;;;;;5049334;28;46346;-62
2022/05/29 07:25:07;;;;;;;4.10;2.73;;;14.50;28.00;;;;;;5044274;28;46284;-62
2022/05/29 07:27:33;;;;;;;9.07;3.17;;;14.60;28.30;;;;;;5045265;28;46464;-62
2022/05/29 07:29:59;;;;;;;5.00;2.10;;;14.70;28.10;;;;;;5048852;28;47305;-60
2022/05/29 07:32:24;;;;;;;6.47;2.87;;;14.90;27.80;;;;;;5052131;28;45851;-62
2022/05/29 07:34:50;;;;;;;5.07;2.07;;;14.90;27.70;;;;;;5050588;28;46231;-61
2022/05/29 07:37:17;;;;;;;7.03;2.43;;;15.20;27.20;;;;;;5051604;28;45973;-61
2022/05/29 07:39:46;;;;;;;8.20;2.37;;;15.30;26.90;;;;;;5047855;28;46366;-61
2022/05/29 07:44:57;;;;;;;4.80;2.00;;;15.60;26.50;;;;;;5046971;28;46407;-61
2022/05/29 07:47:27;;;;;;;5.70;2.10;;;16.10;26.10;;;;;;5048179;28;46425;-61
2022/05/29 07:49:54;;;;;;;6.27;2.50;;;16.00;25.90;;;;;;5049068;28;46358;-62
2022/05/29 07:52:20;;;;;;;7.10;2.47;;;15.50;26.00;;;;;;5047052;28;47122;-61
2022/05/29 07:54:45;;;;;;;8.03;2.00;;;15.30;26.20;;;;;;5051569;28;46346;-62
2022/05/29 07:57:11;;;;;;;4.67;2.33;;;15.20;26.50;;;;;;5049439;28;46282;-61
2022/05/29 07:59:37;;;;;;;4.50;2.50;;;15.10;26.70;;;;;;5049694;28;46338;-62
2022/05/29 08:02:03;;;;;;;5.70;2.50;;;15.00;27.00;;;;;;5047503;28;45806;-64
2022/05/29 08:04:28;;;;;;;7.90;2.83;;;15.00;27.30;;;;;;5050853;28;46540;-62
2022/05/29 08:06:54;;;;;;;5.70;2.63;;;15.20;27.00;;;;;;5049706;28;46431;-61
2022/05/29 08:09:20;;;;;;;4.83;2.33;;;15.20;26.70;;;;;;5047497;28;46452;-62
2022/05/29 08:11:46;;;;;;;7.27;2.73;;;15.20;27.20;;;;;;5050391;28;45978;-62
2022/05/29 08:14:11;;;;;;;6.73;2.27;;;15.30;26.30;;;;;;5047973;28;46502;-61
2022/05/29 08:16:38;;;;;;;5.33;2.10;;;15.50;26.10;;;;;;5049224;28;46103;-61
2022/05/29 08:19:04;;;;;;;7.77;2.47;;;15.70;25.90;;;;;;5049104;28;47055;-63
2022/05/29 08:21:29;;;;;;;6.07;2.40;;;15.70;26.00;;;;;;5055229;28;46344;-59
2022/05/29 08:32:07;;;;;;;6.00;1.93;;;16.20;24.80;;;;;;5056754;28;46372;-62
2022/05/29 08:34:33;;;;;;;8.63;2.13;;;16.30;25.00;;;;;;5050341;28;46563;-63
2022/05/29 08:36:59;;;;;;;11.33;2.30;;;16.20;25.20;;;;;;5058745;28;45895;-62
2022/05/29 08:39:24;;;;;;;4.93;2.30;;;16.20;25.50;;;;;;5049405;28;46470;-59
2022/05/29 08:41:53;;;;;;;5.33;2.67;;;16.20;25.40;;;;;;5052329;28;46409;-62
2022/05/29 08:44:45;;;;;;;5.17;2.60;;;16.10;25.70;;;;;;5055205;28;45839;-62
2022/05/29 08:47:10;;;;;;;7.47;2.87;;;15.80;25.90;;;;;;5051961;28;46279;-62
2022/05/29 08:49:44;;;;;;;4.77;2.30;;;15.80;26.10;;;;;;5048686;28;46907;-62
2022/05/29 08:53:04;;;;;;;8.97;2.40;;;15.60;26.10;;;;;;5060339;28;46396;-59
2022/05/29 08:55:49;;;;;;;6.90;2.27;;;15.50;25.80;;;;;;5069054;28;46499;-60
2022/05/29 08:58:38;;;;;;;7.83;2.60;;;15.50;26.40;;;;;;5055336;28;46445;-60
2022/05/29 09:01:32;;;;;;;7.23;1.87;;;15.10;26.80;;;;;;5051832;28;46795;-60
2022/05/29 09:04:05;;;;;;;5.50;2.20;;;15.00;27.10;;;;;;5049680;28;46429;-61
2022/05/29 09:06:52;;;;;;;8.13;2.17;;;15.00;27.30;;;;;;5051324;28;46409;-62
2022/05/29 09:09:28;;;;;;;6.20;2.50;;;14.90;27.80;;;;;;5053959;28;46629;-63
2022/05/29 09:11:58;;;;;;;7.30;2.70;;;14.50;28.50;;;;;;5051591;28;47059;-62
2022/05/29 09:14:35;;;;;;;4.23;2.10;;;14.20;29.10;;;;;;5054481;28;46422;-63
2022/05/29 09:17:06;;;;;;;8.33;2.33;;;14.20;29.10;;;;;;5050532;28;46625;-62
2022/05/29 09:19:52;;;;;;;8.13;2.60;;;13.90;28.90;;;;;;5048040;28;45812;-61
2022/05/29 09:22:24;;;;;;;11.50;1.93;;;14.20;29.10;;;;;;5051058;28;46901;-60
2022/05/29 09:25:27;;;;;;;6.23;2.30;;;14.70;29.40;;;;;;5048466;28;46352;-61
2022/05/29 09:27:53;;;;;;;7.00;2.47;;;14.90;28.70;;;;;;5051351;28;46889;-60
2022/05/29 09:30:19;;;;;;;5.10;2.00;;;15.00;28.70;;;;;;5048732;28;46489;-63
2022/05/29 09:32:55;;;;;;;6.20;2.10;;;15.10;28.60;;;;;;5049437;28;47198;-62
2022/05/29 09:35:32;;;;;;;6.07;2.57;;;15.20;28.40;;;;;;5050394;28;46801;-61
2022/05/29 09:38:13;;;;;;;4.00;2.10;;;15.30;28.00;;;;;;5050672;28;46668;-61
2022/05/29 09:40:52;;;;;;;9.73;2.27;;;15.30;27.80;;;;;;5050782;28;46474;-61
2022/05/29 09:43:24;;;;;;;6.90;1.77;;;15.30;27.60;;;;;;5048096;28;46382;-61
2022/05/29 09:45:50;;;;;;;6.83;2.07;;;15.30;27.70;;;;;;5052002;28;46426;-61
2022/05/29 09:51:37;;;;;;;3.90;1.63;;;15.10;26.60;;;;;;5052156;28;46165;-61
2022/05/29 09:54:05;;;;;;;5.90;2.23;;;15.10;26.70;;;;;;5052651;28;47064;-64
2022/05/29 09:56:33;;;;;;;6.10;1.63;;;15.30;26.60;;;;;;5049631;28;46367;-62
2022/05/29 09:59:15;;;;;;;4.07;2.00;;;15.40;26.50;;;;;;5049501;28;46493;-61
2022/05/29 10:01:46;;;;;;;7.80;1.80;;;15.40;26.00;;;;;;5052818;28;46521;-61
2022/05/29 10:04:30;;;;;;;6.40;1.60;;;15.50;26.00;;;;;;5058374;28;47015;-60
2022/05/29 10:06:58;;;;;;;5.03;1.83;;;15.40;26.00;;;;;;5051979;28;46489;-60
2022/05/29 10:09:27;;;;;;;6.93;1.87;;;15.30;26.10;;;;;;5054524;28;46363;-61
2022/05/29 10:12:14;;;;;;;5.70;1.80;;;15.00;26.40;;;;;;5051157;28;46769;-60
2022/05/29 10:14:41;;;;;;;6.93;1.70;;;14.80;26.50;;;;;;5051067;28;46408;-60
2022/05/29 10:17:30;;;;;;;7.77;2.40;;;14.80;26.60;;;;;;5052400;28;46740;-62
2022/05/29 10:19:56;;;;;;;7.10;1.83;;;15.00;26.80;;;;;;5053123;28;46281;-61
2022/05/29 10:22:37;;;;;;;6.00;1.87;;;15.00;26.20;;;;;;5049480;28;46382;-61
2022/05/29 10:25:19;;;;;;;4.00;1.50;;;15.00;26.20;;;;;;5048428;28;47226;-61
2022/05/29 10:27:47;;;;;;;4.17;1.63;;;15.10;26.20;;;;;;5050988;28;46481;-60
2022/05/29 10:30:26;;;;;;;4.70;1.63;;;15.00;26.60;;;;;;5047236;28;46501;-60
2022/05/29 10:33:07;;;;;;;3.40;1.50;;;15.10;26.50;;;;;;5050555;28;46334;-61
2022/05/29 10:35:36;;;;;;;5.50;1.60;;;14.70;26.60;;;;;;5048464;28;46369;-59
2022/05/29 10:38:15;;;;;;;3.27;1.60;;;14.60;26.70;;;;;;5047893;28;46397;-59
2022/05/29 10:40:42;;;;;;;6.60;1.93;;;14.40;26.90;;;;;;5050986;28;46782;-61
2022/05/29 10:43:08;;;;;;;3.40;1.50;;;14.30;27.00;;;;;;5046108;28;46476;-62
2022/05/29 10:45:44;;;;;;;5.97;1.80;;;14.40;27.00;;;;;;5049779;28;46614;-61
2022/05/29 10:48:34;;;;;;;4.00;1.90;;;14.60;27.10;;;;;;5048890;28;46404;-58
2022/05/29 10:51:24;;;;;;;4.63;1.60;;;15.00;26.70;;;;;;5048216;28;46468;-61
2022/05/29 10:54:10;;;;;;;3.87;1.83;;;15.30;25.80;;;;;;5047703;28;46363;-61
2022/05/29 10:56:39;;;;;;;8.20;2.13;;;15.40;25.80;;;;;;5042741;28;47157;-60
2022/05/29 10:59:12;;;;;;;5.23;1.93;;;15.50;26.20;;;;;;5045865;28;46403;-61
2022/05/29 11:04:56;;;;;;;9.07;1.90;;;15.70;25.70;;;;;;5042900;28;46479;-61
2022/05/29 11:07:42;;;;;;;2.90;1.30;;;15.90;25.50;;;;;;5043099;28;46921;-60
2022/05/29 11:10:24;;;;;;;3.00;1.50;;;16.00;25.40;;;;;;5047793;28;46507;-59
2022/05/29 11:13:17;;;;;;;4.20;1.60;;;16.10;24.70;;;;;;5048111;28;46632;-60
2022/05/29 11:15:48;;;;;;;5.50;1.30;;;16.10;24.20;;;;;;5052863;28;47354;-59
2022/05/29 11:18:32;;;;;;;12.63;1.20;;;15.90;23.30;;;;;;5050284;28;46156;-60
2022/05/29 11:21:26;;;;;;;3.20;1.47;;;15.90;23.10;;;;;;5049286;28;46593;-58
2022/05/29 11:24:08;;;;;;;4.43;1.37;;;15.80;23.20;;;;;;5047527;28;46457;-61
2022/05/29 11:27:14;;;;;;;2.93;1.23;;;15.90;23.50;;;;;;5050538;28;46471;-62
2022/05/29 11:29:47;;;;;;;10.60;1.73;;;16.00;23.60;;;;;;5045386;28;46914;-61
2022/05/29 11:32:25;;;;;;;2.73;1.20;;;16.20;23.50;;;;;;5049864;28;46330;-60
2022/05/29 11:35:20;;;;;;;5.37;1.57;;;16.40;23.40;;;;;;5051834;28;46340;-61
2022/05/29 11:38:01;;;;;;;4.83;1.87;;;16.70;23.10;;;;;;5049898;28;46695;-63
2022/05/29 11:40:30;;;;;;;6.40;1.70;;;17.00;22.90;;;;;;5049319;28;46277;-61
2022/05/29 11:43:30;;;;;;;3.13;1.40;;;17.20;22.70;;;;;;5044091;28;46471;-63
2022/05/29 11:51:58;;;;;;;3.00;1.40;;;17.40;22.90;;;;;;5048386;28;46464;-61
2022/05/29 11:54:38;;;;;;;4.10;1.47;;;17.60;23.00;;;;;;5048903;28;46622;-61
2022/05/29 11:57:21;;;;;;;2.70;1.37;;;17.90;23.40;;;;;;5047669;28;46179;-60
2022/05/29 12:00:08;;;;;;;3.43;1.60;;;18.20;21.80;;;;;;5047834;28;46525;-61
2022/05/29 12:02:58;;;;;;;2.50;1.20;;;18.70;21.50;;;;;;5047539;28;47193;-61
2022/05/29 12:05:29;;;;;;;3.23;1.40;;;19.10;21.40;;;;;;5049563;28;46571;-61
2022/05/29 12:08:09;;;;;;;3.13;1.60;;;18.60;20.20;;;;;;5048618;28;46469;-60
2022/05/29 12:10:50;;;;;;;3.40;1.60;;;18.50;21.00;;;;;;5047714;28;46338;-60
2022/05/29 12:13:20;;;;;;;3.70;1.80;;;18.30;21.20;;;;;;5048290;28;46358;-61
2022/05/29 12:15:50;;;;;;;3.93;1.70;;;18.20;21.20;;;;;;5050340;28;46453;-59
2022/05/29 12:18:19;;;;;;;3.57;1.40;;;18.30;21.20;;;;;;5048602;28;46459;-62
2022/05/29 12:20:52;;;;;;;3.17;1.33;;;18.30;21.20;;;;;;5046419;28;46384;-61
2022/05/29 12:23:23;;;;;;;4.10;1.33;;;18.30;21.20;;;;;;5050851;28;47044;-60
2022/05/29 12:26:03;;;;;;;5.50;1.60;;;18.60;20.60;;;;;;5046539;28;46418;-60
2022/05/29 12:28:35;;;;;;;4.20;1.47;;;18.80;20.20;;;;;;5048186;28;46268;-61
2022/05/29 12:31:01;;;;;;;3.20;1.37;;;19.00;19.90;;;;;;5045444;28;46386;-61
2022/05/29 12:33:27;;;;;;;3.77;1.30;;;19.10;19.70;;;;;;5053413;28;46429;-60
2022/05/29 12:36:19;;;;;;;3.40;1.37;;;19.30;19.70;;;;;;5048885;28;46318;-61
2022/05/29 12:38:45;;;;;;;4.17;1.80;;;19.30;19.90;;;;;;5052001;28;46430;-60
2022/05/29 12:41:19;;;;;;;5.13;1.40;;;19.10;19.50;;;;;;5048097;28;46556;-61
2022/05/29 12:44:07;;;;;;;3.83;1.60;;;19.10;19.90;;;;;;5052198;28;47239;-60
2022/05/29 12:46:56;;;;;;;3.80;1.60;;;18.90;19.90;;;;;;5047270;28;46321;-62
2022/05/29 12:49:51;;;;;;;3.47;1.53;;;18.60;20.20;;;;;;5051181;28;46435;-61
2022/05/29 12:52:28;;;;;;;3.30;1.30;;;18.40;20.70;;;;;;5047913;28;46338;-62
2022/05/29 12:55:42;;;;;;;4.53;1.50;;;18.30;21.20;;;;;;5050672;28;46394;-61
2022/05/29 12:58:53;;;;;;;4.00;1.40;;;18.00;21.00;;;;;;5043977;28;46839;-61
2022/05/29 13:01:36;;;;;;;3.30;1.70;;;17.70;21.40;;;;;;5026020;28;46500;-61
2022/05/29 13:04:40;;;;;;;3.90;1.77;;;17.40;22.00;;;;;;5022520;28;46481;-62
2022/05/29 13:07:21;;;;;;;3.50;1.47;;;17.20;22.40;;;;;;5044677;28;48013;-59
2022/05/29 13:10:11;;;;;;;3.47;1.47;;;17.20;22.70;;;;;;5047519;28;46438;-61
2022/05/29 13:12:45;;;;;;;5.30;1.70;;;17.10;23.20;;;;;;5047373;28;46466;-60
2022/05/29 13:15:22;;;;;;;6.47;1.40;;;17.10;23.50;;;;;;5050168;28;46408;-62
2022/05/29 13:17:58;;;;;;;4.40;1.50;;;16.90;23.80;;;;;;5050723;28;47155;-61
2022/05/29 13:20:25;;;;;;;4.70;1.93;;;16.90;24.30;;;;;;5049340;28;45959;-60
2022/05/29 13:22:51;;;;;;;5.73;1.33;;;16.80;24.30;;;;;;5052472;28;46493;-60
2022/05/29 13:25:21;;;;;;;3.40;1.80;;;16.80;24.50;;;;;;5053947;28;46318;-60
2022/05/29 13:27:46;;;;;;;5.80;2.70;;;16.70;24.90;;;;;;5051906;28;46901;-59
2022/05/29 13:30:33;;;;;;;5.93;1.90;;;16.50;25.00;;;;;;5053379;28;46614;-62
2022/05/29 13:33:24;;;;;;;3.17;1.60;;;16.50;25.60;;;;;;5049400;28;46532;-61
2022/05/29 13:35:49;;;;;;;10.30;1.90;;;16.30;26.10;;;;;;5053319;28;46437;-61
2022/05/29 13:38:53;;;;;;;8.90;1.67;;;16.10;26.70;;;;;;5048066;28;47167;-60
2022/05/29 13:41:50;;;;;;;4.03;1.90;;;15.10;29.70;;;;;;5051564;28;46298;-61
2022/05/29 13:44:30;;;;;;;3.53;1.70;;;14.00;33.20;;;;;;5050082;28;46559;-60
2022/05/29 13:47:19;;;;;;;4.10;1.60;;;12.80;39.80;;;;;;5048875;28;46504;-61
2022/05/29 13:50:01;;;;;;;5.37;2.13;;;12.10;45.00;;;;;;5045122;28;48098;-61
2022/05/29 13:52:42;;;;;;;10.43;1.93;;;11.90;45.10;;;;;;5047889;28;46825;-60
2022/05/29 13:55:19;;;;;;;3.77;1.83;;;11.70;45.90;;;;;;5051351;28;46393;-61
2022/05/29 14:03:58;;;;;;;3.43;1.70;;;11.40;47.40;;;;;;5051934;28;46526;-62
2022/05/29 14:07:04;;;;;;;5.03;1.70;;;11.40;46.50;;;;;;5044953;28;46337;-61
2022/05/29 14:09:30;;;;;;;5.43;2.10;;;11.40;47.00;;;;;;5052393;28;46662;-62